Time;durP1;ratioP1;P1;durP2;ratioP2;P2;SDS_P1;SDS_P2;PMS_P1;PMS_P2;Temp;Humidity;BMP_temperature;BMP_pressure;BME280_temperature;BME280_humidity;BME280_pressure;Samples;Min_cycle;Max_cycle;Signal;HPM_P1;HPM_P2
2023/03/17 00:00:23;;;;;;;5.67;5.00;;;;;;;2.51;100.00;96286.59;4991959;28;105146;-63
2023/03/17 00:02:52;;;;;;;7.43;4.73;;;;;;;2.54;100.00;96284.38;4992393;28;103280;-63
2023/03/17 00:05:23;;;;;;;6.83;5.83;;;;;;;2.52;100.00;96283.75;4991763;28;101896;-63
2023/03/17 00:07:51;;;;;;;5.70;5.10;;;;;;;2.47;100.00;96282.75;4994725;28;105315;-63
2023/03/17 00:10:22;;;;;;;5.00;4.50;;;;;;;2.42;100.00;96279.94;4991161;28;101915;-63
2023/03/17 00:12:50;;;;;;;5.30;4.80;;;;;;;2.44;100.00;96283.16;4993310;28;103628;-64
2023/03/17 00:15:17;;;;;;;4.80;4.40;;;;;;;2.27;100.00;96276.69;4992504;28;102694;-64
2023/03/17 00:17:46;;;;;;;4.73;3.77;;;;;;;2.04;100.00;96278.91;4993134;28;101807;-63
2023/03/17 00:20:22;;;;;;;5.03;4.53;;;;;;;2.20;100.00;96281.16;4992939;28;102698;-64
2023/03/17 00:22:50;;;;;;;5.67;4.17;;;;;;;2.22;100.00;96274.69;4992258;28;102440;-64
2023/03/17 00:25:24;;;;;;;5.53;4.33;;;;;;;2.02;100.00;96268.59;4991448;28;101915;-63
2023/03/17 00:27:52;;;;;;;6.03;4.40;;;;;;;1.85;100.00;96271.81;4991645;28;105750;-63
2023/03/17 00:30:20;;;;;;;5.10;4.60;;;;;;;1.89;100.00;96265.97;4994025;28;102624;-63
2023/03/17 00:32:50;;;;;;;6.30;4.07;;;;;;;1.91;100.00;96271.81;4992699;28;102512;-64
2023/03/17 00:35:22;;;;;;;6.40;4.87;;;;;;;1.89;100.00;96262.53;4990638;28;105292;-64
2023/03/17 00:37:51;;;;;;;4.93;4.43;;;;;;;1.74;100.00;96254.88;4991330;28;102225;-63
2023/03/17 00:40:21;;;;;;;7.57;4.83;;;;;;;1.92;100.00;96249.84;4990954;28;105569;-63
2023/03/17 00:42:49;;;;;;;6.43;4.97;;;;;;;1.82;100.00;96251.25;4992012;28;102528;-64
2023/03/17 00:45:17;;;;;;;4.57;4.17;;;;;;;1.85;100.00;96250.84;4991302;28;101775;-63
2023/03/17 00:47:45;;;;;;;5.30;4.70;;;;;;;1.72;100.00;96240.34;4991087;28;105024;-64
2023/03/17 00:50:15;;;;;;;5.93;4.90;;;;;;;1.50;100.00;96251.97;4994080;28;104217;-63
2023/03/17 00:52:45;;;;;;;4.80;4.40;;;;;;;1.53;100.00;96235.88;4990574;28;105220;-63
2023/03/17 00:55:14;;;;;;;5.20;4.70;;;;;;;1.65;100.00;96239.53;4990370;28;105921;-64
2023/03/17 00:57:41;;;;;;;5.50;4.90;;;;;;;1.69;100.00;96235.50;4990941;28;101938;-63
2023/03/17 01:00:20;;;;;;;6.07;5.47;;;;;;;1.74;100.00;96233.06;4991077;28;105115;-64
2023/03/17 01:02:47;;;;;;;4.93;4.47;;;;;;;1.73;100.00;96219.19;4989862;28;105370;-64
2023/03/17 01:05:14;;;;;;;6.37;4.70;;;;;;;1.70;100.00;96224.00;4990808;28;102077;-64
2023/03/17 01:07:46;;;;;;;4.80;4.30;;;;;;;1.72;100.00;96224.63;4992304;28;102518;-64
2023/03/17 01:10:17;;;;;;;5.77;5.20;;;;;;;1.71;100.00;96212.53;4990092;28;105444;-64
2023/03/17 01:12:45;;;;;;;5.57;5.00;;;;;;;1.64;100.00;96212.50;4995919;28;101974;-63
2023/03/17 01:15:14;;;;;;;7.77;5.17;;;;;;;1.52;100.00;96208.84;4991899;28;102643;-63
2023/03/17 01:17:42;;;;;;;4.80;4.40;;;;;;;1.39;100.00;96206.22;4991752;28;101792;-64
2023/03/17 01:20:16;;;;;;;8.00;4.67;;;;;;;1.29;100.00;96205.78;4990686;28;104162;-63
2023/03/17 01:22:45;;;;;;;5.83;4.53;;;;;;;1.10;100.00;96205.72;4989811;28;105498;-63
2023/03/17 01:25:12;;;;;;;4.70;4.10;;;;;;;1.18;100.00;96205.53;4990753;28;102020;-63
2023/03/17 01:27:40;;;;;;;6.07;4.70;;;;;;;1.27;100.00;96196.50;4991804;28;102516;-64
2023/03/17 01:30:21;;;;;;;5.13;4.63;;;;;;;1.17;100.00;96186.41;4990035;28;105501;-63
2023/03/17 01:32:48;;;;;;;4.77;4.30;;;;;;;1.28;100.00;96193.69;4990369;28;101743;-64
2023/03/17 01:35:16;;;;;;;6.07;4.37;;;;;;;1.30;100.00;96180.38;4993103;28;105455;-64
2023/03/17 01:37:45;;;;;;;4.57;4.17;;;;;;;1.06;100.00;96183.53;4990337;28;102236;-63
2023/03/17 01:40:17;;;;;;;6.87;4.20;;;;;;;1.09;100.00;96181.34;4990188;28;104926;-64
2023/03/17 01:42:45;;;;;;;5.03;4.20;;;;;;;1.20;100.00;96178.16;4989807;28;105094;-63
2023/03/17 01:45:46;;;;;;;4.77;4.07;;;;;;;1.07;100.00;96187.78;4990482;28;102105;-64
2023/03/17 01:48:14;;;;;;;5.10;3.83;;;;;;;1.16;100.00;96176.91;4990093;28;105189;-63
2023/03/17 01:50:41;;;;;;;5.13;4.43;;;;;;;1.04;100.00;96180.34;4989547;28;105559;-63
2023/03/17 01:53:10;;;;;;;4.93;4.33;;;;;;;1.07;100.00;96162.41;4989789;28;101997;-63
2023/03/17 01:55:38;;;;;;;4.80;4.30;;;;;;;1.09;100.00;96163.00;4973685;28;105184;-64
2023/03/17 01:58:06;;;;;;;4.50;4.10;;;;;;;1.15;100.00;96154.38;4992867;28;105084;-63
2023/03/17 02:00:34;;;;;;;5.13;4.57;;;;;;;1.12;100.00;96154.78;4989983;28;105342;-63
2023/03/17 02:03:01;;;;;;;5.37;4.83;;;;;;;1.14;100.00;96157.16;4988874;28;105134;-63
2023/03/17 02:05:31;;;;;;;5.23;4.60;;;;;;;1.23;100.00;96151.59;4988635;28;102008;-63
2023/03/17 02:07:59;;;;;;;5.60;4.83;;;;;;;1.27;100.00;96144.13;4989970;28;105151;-63
2023/03/17 02:10:30;;;;;;;4.53;4.13;;;;;;;1.27;100.00;96138.88;4988997;28;105386;-64
2023/03/17 02:13:02;;;;;;;5.03;4.53;;;;;;;1.31;100.00;96142.72;4989973;28;102204;-64
2023/03/17 02:15:38;;;;;;;5.63;4.30;;;;;;;1.32;100.00;96134.66;4989877;28;105124;-63
2023/03/17 02:18:05;;;;;;;4.83;4.33;;;;;;;1.11;100.00;96129.56;4988917;28;105836;-64
2023/03/17 02:21:12;;;;;;;5.27;4.40;;;;;;;1.17;100.00;96125.38;4993077;28;101914;-63
2023/03/17 02:23:43;;;;;;;4.30;3.90;;;;;;;1.00;100.00;96118.88;4990564;28;102482;-64
2023/03/17 02:26:11;;;;;;;4.97;4.10;;;;;;;0.87;100.00;96119.66;4991247;28;101675;-64
2023/03/17 02:28:38;;;;;;;6.17;4.53;;;;;;;0.97;100.00;96129.75;4989421;28;105563;-64
2023/03/17 02:31:05;;;;;;;4.90;4.17;;;;;;;1.07;100.00;96119.69;4988988;28;105874;-64
2023/03/17 02:33:32;;;;;;;5.30;4.63;;;;;;;0.91;100.00;96120.88;4989474;28;101873;-64
2023/03/17 02:35:59;;;;;;;5.20;4.27;;;;;;;0.88;100.00;96123.09;4989257;28;104207;-64
2023/03/17 02:38:26;;;;;;;4.30;3.90;;;;;;;0.90;100.00;96121.91;4988894;28;105839;-64
2023/03/17 02:40:55;;;;;;;5.10;4.60;;;;;;;0.93;100.00;96124.09;4994266;28;102109;-63
2023/03/17 02:43:22;;;;;;;5.97;4.13;;;;;;;0.80;100.00;96123.25;4988828;28;105520;-64
2023/03/17 02:45:49;;;;;;;5.10;4.40;;;;;;;0.76;100.00;96122.84;4989335;28;101848;-64
2023/03/17 02:48:16;;;;;;;6.90;4.63;;;;;;;0.83;100.00;96117.63;4990543;28;102885;-64
2023/03/17 02:50:43;;;;;;;5.67;4.43;;;;;;;0.83;100.00;96117.63;4989887;28;102912;-64
2023/03/17 02:53:10;;;;;;;5.37;4.27;;;;;;;0.73;100.00;96107.53;4989130;28;101904;-64
2023/03/17 02:55:38;;;;;;;6.40;4.27;;;;;;;0.68;100.00;96111.75;4989293;28;105135;-64
2023/03/17 02:58:19;;;;;;;4.30;3.90;;;;;;;0.70;100.00;96101.88;4989956;28;103084;-64
2023/03/17 03:00:47;;;;;;;4.73;3.87;;;;;;;0.54;100.00;96102.22;4990717;28;101639;-64
2023/03/17 03:03:14;;;;;;;5.77;3.60;;;;;;;0.58;100.00;96100.84;4992254;28;102955;-64
2023/03/17 03:05:42;;;;;;;4.20;3.60;;;;;;;0.59;100.00;96099.81;4990449;28;102331;-64
2023/03/17 03:08:08;;;;;;;3.87;3.57;;;;;;;0.68;100.00;96099.47;4989013;28;105168;-64
2023/03/17 03:10:36;;;;;;;3.83;3.53;;;;;;;0.73;100.00;96106.72;4989420;28;102691;-63
2023/03/17 03:13:03;;;;;;;4.03;3.50;;;;;;;0.66;100.00;96111.94;4990367;28;101745;-64
2023/03/17 03:15:31;;;;;;;4.30;3.90;;;;;;;0.61;100.00;96111.72;4988923;28;105523;-64
2023/03/17 03:17:59;;;;;;;3.47;3.13;;;;;;;0.40;100.00;96108.41;4988810;28;102499;-63
2023/03/17 03:20:25;;;;;;;4.40;4.00;;;;;;;0.49;100.00;96109.84;4988848;28;102235;-64
2023/03/17 03:22:52;;;;;;;3.60;3.30;;;;;;;0.45;100.00;96108.63;4990295;28;102345;-64
2023/03/17 03:25:19;;;;;;;5.23;4.07;;;;;;;0.43;100.00;96108.00;4991700;28;105280;-64
2023/03/17 03:27:46;;;;;;;4.10;3.80;;;;;;;0.44;100.00;96105.19;4988809;28;105828;-63
2023/03/17 03:30:13;;;;;;;4.57;4.17;;;;;;;0.47;100.00;96107.44;4989448;28;102597;-63
2023/03/17 03:32:42;;;;;;;4.10;3.70;;;;;;;0.28;100.00;96105.53;4971956;28;102105;-64
2023/03/17 03:35:09;;;;;;;4.67;3.60;;;;;;;0.29;100.00;96107.13;4988724;28;105578;-64
2023/03/17 03:37:36;;;;;;;5.13;3.50;;;;;;;0.41;100.00;96107.41;4987957;28;105384;-63
2023/03/17 03:40:03;;;;;;;5.80;3.77;;;;;;;0.48;100.00;96108.22;4988283;28;101986;-63
2023/03/17 03:42:30;;;;;;;4.63;3.97;;;;;;;0.50;100.00;96109.66;4988585;28;104921;-64
2023/03/17 03:44:57;;;;;;;4.30;3.50;;;;;;;0.38;100.00;96113.00;4988088;28;104946;-64
2023/03/17 03:47:23;;;;;;;5.40;3.30;;;;;;;0.48;100.00;96118.69;4991784;28;101928;-63
2023/03/17 03:49:52;;;;;;;4.23;3.87;;;;;;;0.49;100.00;96115.88;4987919;28;105217;-64
2023/03/17 03:52:18;;;;;;;4.57;3.73;;;;;;;0.38;100.00;96110.41;4988221;28;102206;-63
2023/03/17 03:54:45;;;;;;;3.90;3.47;;;;;;;0.37;100.00;96104.38;4988547;28;105276;-64
2023/03/17 03:57:12;;;;;;;4.20;3.47;;;;;;;0.38;100.00;96098.13;4987910;28;105426;-64
2023/03/17 03:59:39;;;;;;;3.43;3.17;;;;;;;0.42;100.00;96094.13;4988421;28;101891;-64
2023/03/17 04:02:06;;;;;;;4.90;3.67;;;;;;;0.35;100.00;96092.50;4988028;28;104830;-64
2023/03/17 04:04:33;;;;;;;5.80;3.77;;;;;;;0.24;100.00;96095.66;4987219;28;105436;-64
2023/03/17 04:07:02;;;;;;;4.17;3.77;;;;;;;0.20;100.00;96094.44;4988416;28;102013;-64
2023/03/17 04:09:28;;;;;;;3.93;3.57;;;;;;;0.16;100.00;96099.22;4990679;28;105584;-63
2023/03/17 04:11:55;;;;;;;4.00;3.60;;;;;;;0.22;100.00;96095.06;4988296;28;101910;-64
2023/03/17 04:14:22;;;;;;;4.77;3.60;;;;;;;0.05;100.00;96091.94;4989583;28;102468;-64
2023/03/17 04:16:49;;;;;;;4.57;3.90;;;;;;;0.23;100.00;96089.63;4987246;28;105037;-64
2023/03/17 04:19:16;;;;;;;4.60;3.63;;;;;;;0.17;100.00;96086.97;4989604;28;101790;-64
2023/03/17 04:21:43;;;;;;;4.40;4.00;;;;;;;0.27;100.00;96088.22;4989496;28;102916;-64
2023/03/17 04:24:13;;;;;;;4.03;3.70;;;;;;;0.32;100.00;96079.78;4987340;28;104910;-64
2023/03/17 04:26:41;;;;;;;4.10;3.70;;;;;;;0.19;100.00;96083.19;4989677;28;101661;-64
2023/03/17 04:29:09;;;;;;;3.37;3.07;;;;;;;0.27;100.00;96079.56;4991042;28;102347;-63
2023/03/17 04:31:38;;;;;;;4.90;3.63;;;;;;;0.25;100.00;96074.56;4995309;28;102471;-63
2023/03/17 04:34:05;;;;;;;3.73;3.13;;;;;;;0.28;100.00;96084.59;4992810;28;102956;-63
2023/03/17 04:36:32;;;;;;;3.70;3.40;;;;;;;0.31;100.00;96065.94;4992372;28;103313;-64
2023/03/17 04:39:00;;;;;;;5.23;4.00;;;;;;;0.08;100.00;96067.22;4991105;28;101980;-64
2023/03/17 04:41:29;;;;;;;3.57;3.20;;;;;;;0.08;100.00;96064.59;4992734;28;102288;-63
2023/03/17 04:43:56;;;;;;;4.50;3.57;;;;;;;0.13;100.00;96072.69;4991874;28;103232;-63
2023/03/17 04:46:22;;;;;;;3.87;3.53;;;;;;;0.23;100.00;96073.13;4991233;28;101907;-64
2023/03/17 04:48:49;;;;;;;5.43;3.67;;;;;;;0.32;100.00;96062.31;4991361;28;104724;-64
2023/03/17 04:51:16;;;;;;;3.90;3.60;;;;;;;0.29;100.00;96060.06;4994154;28;105867;-64
2023/03/17 04:53:49;;;;;;;3.87;3.57;;;;;;;0.34;100.00;96054.28;4991391;28;104980;-64
2023/03/17 04:56:16;;;;;;;4.63;3.30;;;;;;;0.29;100.00;96061.91;4990714;28;105361;-63
2023/03/17 04:58:45;;;;;;;5.10;3.83;;;;;;;0.32;100.00;96056.25;4991136;28;101929;-63
2023/03/17 05:01:11;;;;;;;4.57;4.07;;;;;;;0.23;100.00;96071.31;4991165;28;105457;-63
2023/03/17 05:03:44;;;;;;;4.97;4.07;;;;;;;0.24;100.00;96075.53;4990095;28;105365;-64
2023/03/17 05:06:11;;;;;;;6.90;4.20;;;;;;;0.28;100.00;96075.97;4987172;28;102413;-64
2023/03/17 05:08:38;;;;;;;6.73;4.77;;;;;;;0.38;100.00;96079.00;4969732;28;105054;-64
2023/03/17 05:11:05;;;;;;;4.57;4.10;;;;;;;0.41;100.00;96079.47;4970255;28;105479;-63
2023/03/17 05:14:10;;;;;;;4.70;4.30;;;;;;;0.45;100.00;96069.41;4976124;28;101930;-64
2023/03/17 05:16:37;;;;;;;4.80;4.10;;;;;;;0.52;100.00;96070.22;4970687;28;105411;-64
2023/03/17 05:19:04;;;;;;;6.27;4.20;;;;;;;0.46;100.00;96079.69;4972554;28;101993;-63
2023/03/17 05:21:31;;;;;;;6.03;4.00;;;;;;;0.48;100.00;96077.66;4972590;28;102843;-64
2023/03/17 05:24:21;;;;;;;5.37;4.50;;;;;;;0.59;100.00;96068.44;4971691;28;103050;-63
2023/03/17 05:26:48;;;;;;;4.17;3.77;;;;;;;0.55;100.00;96075.09;4977711;28;101739;-63
2023/03/17 05:29:17;;;;;;;6.10;4.57;;;;;;;0.72;100.00;96084.19;4992016;28;102376;-63
2023/03/17 05:31:44;;;;;;;4.97;4.43;;;;;;;0.65;100.00;96078.09;4988859;28;105712;-63
2023/03/17 05:34:11;;;;;;;4.80;4.27;;;;;;;0.55;100.00;96080.31;4989884;28;101807;-63
2023/03/17 05:36:38;;;;;;;4.90;4.50;;;;;;;0.62;100.00;96078.50;4994957;28;102341;-64
2023/03/17 05:39:06;;;;;;;4.60;4.13;;;;;;;0.81;100.00;96077.75;4991446;28;102170;-63
2023/03/17 05:41:33;;;;;;;5.87;4.90;;;;;;;0.93;100.00;96068.34;4990414;28;105316;-63
2023/03/17 05:44:00;;;;;;;6.50;5.00;;;;;;;1.05;100.00;96071.97;4991181;28;101737;-63
2023/03/17 05:46:28;;;;;;;5.27;4.33;;;;;;;1.10;100.00;96077.44;4991644;28;101825;-63
2023/03/17 05:48:55;;;;;;;5.00;4.40;;;;;;;1.07;100.00;96078.63;4991631;28;102565;-63
2023/03/17 05:51:22;;;;;;;5.70;4.47;;;;;;;0.91;100.00;96079.00;4989559;28;105603;-63
2023/03/17 05:53:49;;;;;;;7.83;4.60;;;;;;;0.90;100.00;96080.00;4991195;28;101810;-63
2023/03/17 05:56:16;;;;;;;4.70;4.30;;;;;;;0.99;100.00;96080.63;4990226;28;105164;-63
2023/03/17 05:58:43;;;;;;;12.03;5.20;;;;;;;1.15;100.00;96088.91;4992153;28;105321;-63
2023/03/17 06:01:10;;;;;;;5.93;5.30;;;;;;;1.08;100.00;96075.00;4991087;28;102490;-63
2023/03/17 06:03:38;;;;;;;5.63;5.00;;;;;;;1.28;100.00;96082.88;4988367;28;104144;-63
2023/03/17 06:06:06;;;;;;;5.33;4.80;;;;;;;1.41;100.00;96075.00;4989343;28;102150;-63
2023/03/17 06:08:32;;;;;;;6.80;5.43;;;;;;;1.54;100.00;96077.66;4989399;28;105097;-64
2023/03/17 06:11:01;;;;;;;8.30;6.20;;;;;;;1.58;100.00;96078.88;4989709;28;102567;-64
2023/03/17 06:13:28;;;;;;;9.30;5.83;;;;;;;1.55;100.00;96074.84;4989268;28;101893;-64
2023/03/17 06:15:56;;;;;;;6.30;5.70;;;;;;;1.74;100.00;96071.38;4990443;28;102538;-64
2023/03/17 06:18:23;;;;;;;6.53;5.77;;;;;;;1.83;100.00;96074.59;4989514;28;102765;-64
2023/03/17 06:20:51;;;;;;;10.13;6.40;;;;;;;1.76;100.00;96073.81;4992616;28;102101;-64
2023/03/17 06:23:19;;;;;;;7.97;6.10;;;;;;;1.69;100.00;96076.44;4988527;28;105253;-64
2023/03/17 06:25:46;;;;;;;8.17;6.83;;;;;;;1.74;100.00;96075.81;4990662;28;101703;-64
2023/03/17 06:28:13;;;;;;;7.73;5.50;;;;;;;1.99;100.00;96082.84;4990391;28;102840;-63
2023/03/17 06:30:40;;;;;;;8.47;5.57;;;;;;;2.16;100.00;96075.34;4989724;28;102495;-63
2023/03/17 06:33:07;;;;;;;6.90;5.80;;;;;;;2.32;100.00;96080.13;4990501;28;101787;-64
2023/03/17 06:35:34;;;;;;;5.90;5.30;;;;;;;2.47;100.00;96076.25;4988819;28;104968;-64
2023/03/17 06:38:03;;;;;;;14.27;7.70;;;;;;;2.56;100.00;96079.47;4988286;28;105720;-64
2023/03/17 06:40:32;;;;;;;10.90;7.27;;;;;;;2.54;100.00;96077.03;4988457;28;102098;-64
2023/03/17 06:43:00;;;;;;;9.97;6.97;;;;;;;2.69;100.00;96084.66;4992852;28;102553;-63
2023/03/17 06:45:27;;;;;;;9.40;6.67;;;;;;;2.75;100.00;96081.19;4988850;28;101919;-64
2023/03/17 06:47:54;;;;;;;19.93;8.13;;;;;;;2.88;100.00;96081.09;4988622;28;105111;-64
2023/03/17 06:50:21;;;;;;;9.67;6.30;;;;;;;3.22;100.00;96071.00;4987894;28;105437;-64
2023/03/17 06:52:49;;;;;;;11.13;8.87;;;;;;;3.48;100.00;96077.88;4989386;28;102232;-64
2023/03/17 06:55:18;;;;;;;9.07;6.60;;;;;;;3.60;100.00;96063.84;4989758;28;102668;-64
2023/03/17 06:57:44;;;;;;;73.20;16.23;;;;;;;3.63;100.00;96059.97;4988450;28;104128;-64
2023/03/17 07:00:13;;;;;;;276.53;36.50;;;;;;;3.73;100.00;96068.19;4988078;28;101836;-64
2023/03/17 07:02:40;;;;;;;35.50;9.90;;;;;;;3.77;100.00;96064.91;4990387;28;105201;-64
2023/03/17 07:05:08;;;;;;;38.60;9.87;;;;;;;3.92;100.00;96067.19;4988635;28;101805;-64
2023/03/17 07:07:35;;;;;;;11.93;6.00;;;;;;;3.95;100.00;96066.78;4989172;28;105301;-64
2023/03/17 07:10:03;;;;;;;100.33;20.13;;;;;;;4.10;100.00;96064.63;4989475;28;102581;-63
2023/03/17 07:12:31;;;;;;;24.23;7.50;;;;;;;4.17;100.00;96060.91;4987992;28;101833;-64
2023/03/17 07:14:59;;;;;;;122.17;21.40;;;;;;;4.28;100.00;96064.63;4989120;28;105120;-63
2023/03/17 07:17:25;;;;;;;550.60;79.37;;;;;;;4.44;100.00;96064.03;4987317;28;105206;-64
2023/03/17 07:19:52;;;;;;;246.20;38.23;;;;;;;4.51;100.00;96064.75;4989508;28;101951;-63
2023/03/17 07:22:19;;;;;;;32.23;7.43;;;;;;;4.44;100.00;96061.41;4989508;28;102819;-64
2023/03/17 07:24:47;;;;;;;17.87;6.10;;;;;;;4.26;100.00;96069.31;4992970;28;102534;-64
2023/03/17 07:27:15;;;;;;;4.83;3.50;;;;;;;4.23;100.00;96065.28;4988847;28;104988;-64
2023/03/17 07:29:43;;;;;;;5.13;4.00;;;;;;;4.38;100.00;96065.72;4987912;28;105441;-64
2023/03/17 07:32:10;;;;;;;4.30;3.10;;;;;;;4.44;100.00;96064.03;4990093;28;101787;-63
2023/03/17 07:34:37;;;;;;;130.40;20.03;;;;;;;4.73;100.00;96056.19;4988652;28;105216;-64
2023/03/17 07:37:05;;;;;;;131.30;18.17;;;;;;;4.99;100.00;96049.75;4988798;28;102583;-64
2023/03/17 07:39:32;;;;;;;12.23;6.20;;;;;;;5.30;100.00;96044.25;4987462;28;101875;-64
2023/03/17 07:42:00;;;;;;;7.40;4.87;;;;;;;5.46;100.00;96044.38;4988554;28;105459;-63
2023/03/17 07:44:29;;;;;;;9.13;4.40;;;;;;;5.46;100.00;96043.59;4972572;28;105796;-62
2023/03/17 07:46:57;;;;;;;8.23;4.03;;;;;;;5.64;100.00;96046.13;4954005;28;101745;-62
2023/03/17 07:49:24;;;;;;;4.00;3.30;;;;;;;5.48;100.00;96041.53;4950088;28;101995;-63
2023/03/17 07:51:51;;;;;;;5.13;3.50;;;;;;;5.63;100.00;96042.69;4950693;28;102091;-63
2023/03/17 07:54:18;;;;;;;4.57;3.40;;;;;;;5.75;100.00;96047.97;4959414;28;102313;-62
2023/03/17 07:56:45;;;;;;;4.57;3.33;;;;;;;5.91;100.00;96044.69;4968065;28;105413;-62
2023/03/17 07:59:12;;;;;;;3.47;3.17;;;;;;;6.08;100.00;96043.78;4969845;28;101839;-62
2023/03/17 08:01:39;;;;;;;5.03;4.40;;;;;;;6.01;100.00;96045.72;4970010;28;102644;-62
2023/03/17 08:04:09;;;;;;;4.20;3.80;;;;;;;5.99;100.00;96041.69;4969172;28;105662;-62
2023/03/17 08:06:36;;;;;;;5.53;3.83;;;;;;;6.09;100.00;96045.38;4971916;28;102017;-62
2023/03/17 08:09:03;;;;;;;6.20;4.50;;;;;;;6.42;100.00;96050.84;4974553;28;105470;-62
2023/03/17 08:11:30;;;;;;;6.83;4.13;;;;;;;6.43;100.00;96049.03;4973208;28;101876;-62
2023/03/17 08:14:00;;;;;;;5.57;4.03;;;;;;;6.58;100.00;96050.13;4971657;28;105182;-61
2023/03/17 08:16:27;;;;;;;5.00;4.20;;;;;;;6.45;100.00;96049.59;4971194;28;105728;-62
2023/03/17 08:18:54;;;;;;;5.40;4.47;;;;;;;6.51;100.00;96048.66;4971632;28;101883;-63
2023/03/17 08:21:22;;;;;;;4.47;4.03;;;;;;;6.86;100.00;96046.69;4973156;28;102883;-63
2023/03/17 08:23:49;;;;;;;4.10;3.77;;;;;;;7.08;100.00;96039.72;4972209;28;102505;-62
2023/03/17 08:26:17;;;;;;;3.70;3.40;;;;;;;7.16;100.00;96042.81;4973330;28;101992;-62
2023/03/17 08:28:44;;;;;;;3.33;3.00;;;;;;;7.52;100.00;96044.22;4972974;28;102908;-63
2023/03/17 08:31:13;;;;;;;2.87;2.67;;;;;;;7.59;100.00;96035.06;4974262;28;105985;-62
2023/03/17 08:33:41;;;;;;;2.50;2.30;;;;;;;7.78;100.00;96040.94;4972985;28;102662;-63
2023/03/17 08:36:10;;;;;;;3.83;2.47;;;;;;;8.12;100.00;96032.72;4971984;28;102546;-62
2023/03/17 08:38:39;;;;;;;2.37;2.17;;;;;;;8.74;100.00;96030.66;4971337;28;101873;-63
2023/03/17 08:41:08;;;;;;;2.53;2.00;;;;;;;8.86;100.00;96028.66;4971603;28;105097;-63
2023/03/17 08:43:37;;;;;;;2.40;2.20;;;;;;;8.93;100.00;96021.31;4970359;28;105566;-63
2023/03/17 08:46:07;;;;;;;4.63;2.70;;;;;;;8.67;100.00;96017.56;4972982;28;101663;-63
2023/03/17 08:48:36;;;;;;;1.90;1.80;;;;;;;8.90;100.00;96008.56;4971333;28;105315;-63
2023/03/17 08:51:04;;;;;;;2.17;1.93;;;;;;;9.04;100.00;96020.38;4971724;28;103075;-63
2023/03/17 08:53:31;;;;;;;1.70;1.60;;;;;;;9.07;100.00;96025.19;4975985;28;101709;-63
2023/03/17 08:55:59;;;;;;;3.23;2.40;;;;;;;9.09;100.00;96018.59;4970734;28;105702;-63
2023/03/17 08:58:27;;;;;;;2.90;2.30;;;;;;;9.61;100.00;96021.47;4971096;28;101852;-63
2023/03/17 09:00:54;;;;;;;4.37;2.17;;;;;;;10.21;100.00;96020.09;4972591;28;102368;-63
2023/03/17 09:03:21;;;;;;;2.47;1.87;;;;;;;9.52;100.00;96012.34;4970118;28;102694;-63
2023/03/17 09:05:48;;;;;;;3.07;1.70;;;;;;;9.68;100.00;96006.94;4972155;28;101926;-63
2023/03/17 09:08:16;;;;;;;2.67;1.83;;;;;;;9.86;98.57;96006.53;4972427;28;102568;-63
2023/03/17 09:10:43;;;;;;;2.33;1.50;;;;;;;9.92;83.33;96004.72;4970283;28;105700;-68
2023/03/17 09:13:12;;;;;;;2.07;1.50;;;;;;;10.14;84.60;96000.13;4974137;28;102280;-62
2023/03/17 09:15:40;;;;;;;2.63;1.80;;;;;;;10.16;85.40;95998.00;4970073;28;105260;-63
2023/03/17 09:18:08;;;;;;;1.90;1.63;;;;;;;10.30;95.35;95999.16;4970778;28;101943;-63
2023/03/17 09:20:36;;;;;;;2.57;2.20;;;;;;;10.76;95.33;96001.75;4970625;28;105655;-63
2023/03/17 09:23:07;;;;;;;2.10;1.87;;;;;;;10.95;96.19;96002.09;4970098;28;105768;-63
2023/03/17 09:25:35;;;;;;;1.80;1.70;;;;;;;10.52;91.29;95994.47;4972230;28;101988;-63
2023/03/17 09:28:02;;;;;;;4.20;2.00;;;;;;;10.63;95.42;95996.13;4972080;28;102313;-63
2023/03/17 09:30:31;;;;;;;3.70;2.43;;;;;;;10.44;100.00;95997.63;4971425;28;103121;-62
2023/03/17 09:33:00;;;;;;;1.80;1.70;;;;;;;10.65;97.82;95989.50;4970539;28;102356;-63
2023/03/17 09:35:30;;;;;;;3.00;1.73;;;;;;;11.02;98.69;95987.47;4973137;28;105100;-63
2023/03/17 09:37:57;;;;;;;1.97;1.87;;;;;;;10.75;96.94;95992.16;4970547;28;101945;-62
2023/03/17 09:40:32;;;;;;;12.80;2.90;;;;;;;11.65;98.73;95992.38;4971872;28;103477;-63
2023/03/17 09:43:08;;;;;;;2.00;1.90;;;;;;;11.57;95.34;95992.91;4971408;28;102479;-63
2023/03/17 09:45:37;;;;;;;2.37;2.10;;;;;;;11.78;91.33;95999.03;4970358;28;101926;-63
2023/03/17 09:48:28;;;;;;;2.30;2.10;;;;;;;11.52;93.50;96000.88;4970270;28;104835;-63
2023/03/17 09:50:58;;;;;;;3.20;2.23;;;;;;;11.86;100.00;95993.97;4970167;28;102594;-63
2023/03/17 09:53:32;;;;;;;2.63;2.03;;;;;;;12.29;93.96;95987.25;4971323;28;101771;-62
2023/03/17 09:56:02;;;;;;;2.00;1.90;;;;;;;12.12;75.79;95990.22;4971306;28;103592;-62
2023/03/17 09:58:32;;;;;;;1.80;1.70;;;;;;;11.86;66.01;95991.31;4974299;28;102570;-62
2023/03/17 10:01:03;;;;;;;2.10;1.63;;;;;;;11.98;70.87;96001.69;4971046;28;102851;-63
2023/03/17 10:03:31;;;;;;;3.93;1.60;;;;;;;12.70;73.45;95988.72;4970164;28;102487;-63
2023/03/17 10:06:12;;;;;;;1.97;1.77;;;;;;;12.68;67.43;95980.19;4971129;28;101797;-62
2023/03/17 10:08:50;;;;;;;2.00;1.80;;;;;;;12.70;65.21;95975.38;4969759;28;105291;-62
2023/03/17 10:11:26;;;;;;;3.47;1.63;;;;;;;13.25;66.07;95975.91;4970632;28;102747;-62
2023/03/17 10:13:59;;;;;;;2.73;1.70;;;;;;;12.97;62.15;95976.59;4969728;28;101959;-63
2023/03/17 10:16:40;;;;;;;2.37;1.43;;;;;;;13.10;65.08;95972.53;4971014;28;102865;-62
2023/03/17 10:19:19;;;;;;;1.50;1.43;;;;;;;13.08;61.28;95966.69;4968858;28;105719;-63
2023/03/17 10:21:52;;;;;;;2.03;1.70;;;;;;;13.47;59.03;95962.94;4972940;28;101824;-62
2023/03/17 10:24:20;;;;;;;1.63;1.53;;;;;;;12.88;63.44;95964.09;4968677;28;105745;-62
2023/03/17 10:26:50;;;;;;;3.13;1.70;;;;;;;13.15;62.04;95964.50;4970212;28;101969;-63
2023/03/17 10:29:21;;;;;;;2.77;1.60;;;;;;;13.91;61.49;95957.53;4969500;28;105744;-63
2023/03/17 10:31:50;;;;;;;8.07;2.60;;;;;;;14.44;59.19;95954.59;4968790;28;105810;-62
2023/03/17 10:34:20;;;;;;;2.37;1.70;;;;;;;14.04;58.29;95954.19;4969313;28;101989;-63
2023/03/17 10:36:49;;;;;;;2.20;1.77;;;;;;;13.81;59.76;95955.75;4970620;28;102294;-62
2023/03/17 10:39:19;;;;;;;2.13;1.87;;;;;;;14.09;59.83;95948.78;4970017;28;102577;-62
2023/03/17 10:41:55;;;;;;;2.30;1.97;;;;;;;14.66;58.01;95944.16;4969279;28;101900;-63
2023/03/17 10:44:39;;;;;;;1.60;1.50;;;;;;;14.42;58.47;95938.03;4972102;28;105586;-62
2023/03/17 10:47:21;;;;;;;1.73;1.60;;;;;;;14.60;57.47;95949.88;4970587;28;101769;-63
2023/03/17 10:49:48;;;;;;;1.60;1.50;;;;;;;14.51;56.01;95944.31;4970535;28;102437;-62
2023/03/17 10:52:21;;;;;;;3.63;1.70;;;;;;;14.68;56.37;95938.53;4968420;28;105363;-63
2023/03/17 10:54:50;;;;;;;5.27;1.57;;;;;;;15.32;53.49;95936.81;4969246;28;101918;-63
2023/03/17 10:57:17;;;;;;;1.87;1.70;;;;;;;15.21;54.29;95938.06;4969052;28;105373;-63
2023/03/17 10:59:51;;;;;;;2.80;1.60;;;;;;;15.76;52.64;95931.88;4969387;28;102617;-63
2023/03/17 11:02:24;;;;;;;3.77;1.40;;;;;;;15.38;52.59;95932.22;4968477;28;102200;-63
2023/03/17 11:04:55;;;;;;;1.60;1.50;;;;;;;15.06;52.05;95932.94;4968879;28;105591;-63
2023/03/17 11:07:28;;;;;;;3.47;1.20;;;;;;;15.13;52.16;95943.28;4971581;28;101838;-63
2023/03/17 11:09:58;;;;;;;1.50;1.40;;;;;;;15.60;50.79;95940.47;4969043;28;105717;-63
2023/03/17 11:12:28;;;;;;;1.20;1.10;;;;;;;15.63;50.78;95931.81;4970314;28;102662;-63
2023/03/17 11:14:59;;;;;;;2.40;1.40;;;;;;;15.78;49.65;95926.22;4970326;28;101767;-63
2023/03/17 11:17:40;;;;;;;1.50;1.40;;;;;;;15.59;49.38;95915.53;4969031;28;104271;-63
2023/03/17 11:20:30;;;;;;;1.63;1.53;;;;;;;16.48;51.17;95911.56;4969967;28;103233;-63
2023/03/17 11:23:03;;;;;;;1.93;1.70;;;;;;;16.68;48.65;95901.19;4968759;28;101870;-63
2023/03/17 11:25:33;;;;;;;1.50;1.40;;;;;;;16.76;48.86;95902.38;4969159;28;105607;-63
2023/03/17 11:28:15;;;;;;;2.90;2.60;;;;;;;17.27;50.69;95892.91;4972999;28;103141;-63
2023/03/17 11:30:47;;;;;;;1.50;1.40;;;;;;;17.28;48.46;95889.13;4970479;28;102337;-63
2023/03/17 11:33:34;;;;;;;1.93;1.77;;;;;;;17.51;49.03;95889.97;4969736;28;102752;-62